createdAt,value
2022-12-15T00:00:18.758Z,-5.20
2022-12-15T00:03:04.405Z,-5.30
2022-12-15T00:05:50.403Z,-5.40
2022-12-15T00:08:36.762Z,-5.50
2022-12-15T00:11:22.949Z,-5.50
2022-12-15T00:14:09.090Z,-5.50
2022-12-15T00:16:54.830Z,-5.50
2022-12-15T00:19:40.233Z,-5.50
2022-12-15T00:22:25.888Z,-5.50
2022-12-15T00:25:12.328Z,-5.40
2022-12-15T00:27:57.874Z,-5.40
2022-12-15T00:30:43.558Z,-5.30
2022-12-15T00:33:30.748Z,-5.20
2022-12-15T00:36:19.900Z,-5.20
2022-12-15T00:38:47.666Z,-5.10
2022-12-15T00:41:19.091Z,-5.10
2022-12-15T00:43:46.466Z,-5.10
2022-12-15T00:46:33.210Z,-5.00
2022-12-15T00:49:00.558Z,-5.00
2022-12-15T00:51:47.420Z,-4.90
2022-12-15T00:54:32.842Z,-4.90
2022-12-15T00:57:18.361Z,-4.90
2022-12-15T01:00:03.796Z,-4.90
2022-12-15T01:02:49.518Z,-4.90
2022-12-15T01:05:35.082Z,-4.80
2022-12-15T01:08:20.600Z,-4.90
2022-12-15T01:11:06.165Z,-4.90
2022-12-15T01:13:52.025Z,-4.90
2022-12-15T01:16:38.731Z,-4.90
2022-12-15T01:19:27.759Z,-4.90
2022-12-15T01:21:54.898Z,-5.00
2022-12-15T01:24:21.959Z,-5.00
2022-12-15T01:26:49.066Z,-4.90
2022-12-15T01:29:16.157Z,-5.00
2022-12-15T01:31:44.164Z,-5.00
2022-12-15T01:34:11.365Z,-5.00
2022-12-15T01:36:38.390Z,-5.10
2022-12-15T01:39:05.414Z,-5.20
2022-12-15T01:41:32.477Z,-5.20
2022-12-15T01:44:24.545Z,-5.10
2022-12-15T01:46:56.319Z,-5.10
2022-12-15T01:49:29.722Z,-5.10
2022-12-15T01:52:00.958Z,-5.10
2022-12-15T01:54:39.154Z,-5.10
2022-12-15T01:57:15.468Z,-5.10
2022-12-15T01:59:50.820Z,-5.10
2022-12-15T02:02:23.117Z,-5.10
2022-12-15T02:04:53.169Z,-5.10
2022-12-15T02:07:20.569Z,-5.10
2022-12-15T02:09:49.744Z,-5.10
2022-12-15T02:12:25.972Z,-5.00
2022-12-15T02:15:23.652Z,-5.00
2022-12-15T02:18:08.240Z,-5.00
2022-12-15T02:20:43.057Z,-4.90
2022-12-15T02:23:24.690Z,-4.90
2022-12-15T02:26:19.446Z,-4.90
2022-12-15T02:29:19.983Z,-4.90
2022-12-15T02:32:13.597Z,-4.90
2022-12-15T02:35:07.786Z,-4.90
2022-12-15T02:37:38.425Z,-4.90
2022-12-15T02:40:09.248Z,-4.90
2022-12-15T02:42:43.382Z,-4.90
2022-12-15T02:45:15.641Z,-5.00
2022-12-15T02:48:19.541Z,-5.00
2022-12-15T02:51:07.802Z,-5.00
2022-12-15T02:54:03.552Z,-5.00
2022-12-15T02:56:53.598Z,-5.10
2022-12-15T02:59:38.867Z,-5.10
2022-12-15T03:02:09.115Z,-5.20
2022-12-15T03:04:37.294Z,-5.20
2022-12-15T03:07:09.025Z,-5.20
2022-12-15T03:09:36.239Z,-5.20
2022-12-15T03:12:03.498Z,-5.30
2022-12-15T03:14:30.568Z,-5.40
2022-12-15T03:16:57.787Z,-5.50
2022-12-15T03:19:26.041Z,-5.60
2022-12-15T03:21:53.465Z,-5.60
2022-12-15T03:24:20.477Z,-5.60
2022-12-15T03:26:50.152Z,-5.60
2022-12-15T03:29:18.441Z,-5.70
2022-12-15T03:31:46.139Z,-5.70
2022-12-15T03:34:17.136Z,-5.80
2022-12-15T03:36:44.387Z,-5.80
2022-12-15T03:39:11.502Z,-5.90
2022-12-15T03:41:38.626Z,-5.90
2022-12-15T03:44:05.949Z,-6.00
2022-12-15T03:46:33.118Z,-6.10
2022-12-15T03:49:00.203Z,-6.30
2022-12-15T03:51:27.241Z,-6.40
2022-12-15T03:53:54.529Z,-6.50
2022-12-15T03:56:21.570Z,-6.50
2022-12-15T03:58:48.715Z,-6.60
2022-12-15T04:01:36.660Z,-6.70
2022-12-15T04:04:05.072Z,-6.80
2022-12-15T04:06:32.264Z,-6.80
2022-12-15T04:08:59.370Z,-6.80
2022-12-15T04:11:26.502Z,-6.90
2022-12-15T04:13:53.606Z,-6.90
2022-12-15T04:16:20.807Z,-7.00
2022-12-15T04:19:08.347Z,-7.10
2022-12-15T04:21:35.409Z,-7.10
2022-12-15T04:24:21.013Z,-7.20
2022-12-15T04:27:06.764Z,-7.20
2022-12-15T04:29:52.325Z,-7.30
2022-12-15T04:32:37.873Z,-7.30
2022-12-15T04:35:23.876Z,-7.30
2022-12-15T04:38:09.834Z,-7.20
2022-12-15T04:40:55.511Z,-7.10
2022-12-15T04:43:41.114Z,-7.00
2022-12-15T04:46:27.002Z,-7.00
2022-12-15T04:49:12.714Z,-6.90
2022-12-15T04:51:58.375Z,-6.90
2022-12-15T04:54:44.877Z,-6.90
2022-12-15T04:57:30.494Z,-6.90
2022-12-15T05:00:15.883Z,-6.90
2022-12-15T05:03:01.693Z,-6.90
2022-12-15T05:05:47.171Z,-6.80
2022-12-15T05:08:32.531Z,-6.80
2022-12-15T05:11:19.256Z,-6.70
2022-12-15T05:14:06.131Z,-6.70
2022-12-15T05:16:51.975Z,-6.60
2022-12-15T05:19:38.627Z,-6.50
2022-12-15T05:22:24.256Z,-6.50
2022-12-15T05:25:09.686Z,-6.40
2022-12-15T05:27:55.176Z,-6.40
2022-12-15T05:30:40.710Z,-6.50
2022-12-15T05:33:08.991Z,-6.60
2022-12-15T05:35:36.030Z,-6.50
2022-12-15T05:38:05.219Z,-6.50
2022-12-15T05:40:32.332Z,-6.60
2022-12-15T05:43:02.550Z,-6.70
2022-12-15T05:45:29.622Z,-6.70
2022-12-15T05:47:56.690Z,-6.70
2022-12-15T05:50:23.880Z,-6.80
2022-12-15T05:52:51.148Z,-6.90
2022-12-15T05:55:19.841Z,-7.00
2022-12-15T05:57:54.182Z,-7.00
2022-12-15T06:00:22.282Z,-7.20
2022-12-15T06:02:49.739Z,-7.30
2022-12-15T06:05:17.828Z,-7.40
2022-12-15T06:07:44.892Z,-7.50
2022-12-15T06:10:12.084Z,-7.60
2022-12-15T06:12:39.154Z,-7.60
2022-12-15T06:15:06.834Z,-7.50
2022-12-15T06:17:33.957Z,-7.60
2022-12-15T06:20:01.244Z,-7.60
2022-12-15T06:22:29.943Z,-7.60
2022-12-15T06:24:57.084Z,-7.60
2022-12-15T06:27:24.352Z,-7.70
2022-12-15T06:29:51.517Z,-7.70
2022-12-15T06:32:18.570Z,-7.70
2022-12-15T06:34:45.659Z,-7.70
2022-12-15T06:37:13.282Z,-7.80
2022-12-15T06:39:40.353Z,-7.80
2022-12-15T06:42:07.505Z,-7.90
2022-12-15T06:44:34.539Z,-8.00
2022-12-15T06:47:01.649Z,-8.10
2022-12-15T06:49:28.821Z,-8.10
2022-12-15T06:51:55.852Z,-8.20
2022-12-15T06:54:23.976Z,-8.20
2022-12-15T06:56:51.106Z,-8.30
2022-12-15T06:59:20.579Z,-8.30
2022-12-15T07:01:47.879Z,-8.30
2022-12-15T07:04:15.393Z,-8.40
2022-12-15T07:06:42.554Z,-8.40
2022-12-15T07:09:16.165Z,-8.40
2022-12-15T07:11:46.415Z,-8.40
2022-12-15T07:14:13.563Z,-8.50
2022-12-15T07:16:41.320Z,-8.50
2022-12-15T07:19:14.394Z,-8.50
2022-12-15T07:21:41.691Z,-8.50
2022-12-15T07:24:13.937Z,-8.50
2022-12-15T07:26:42.278Z,-8.40
2022-12-15T07:29:11.926Z,-8.40
2022-12-15T07:31:39.043Z,-8.30
2022-12-15T07:34:06.161Z,-8.40
2022-12-15T07:36:33.494Z,-8.40
2022-12-15T07:39:03.712Z,-8.40
2022-12-15T07:41:31.702Z,-8.40
2022-12-15T07:43:58.890Z,-8.40
2022-12-15T07:46:26.531Z,-8.40
2022-12-15T07:48:53.642Z,-8.30
2022-12-15T07:51:24.649Z,-8.30
2022-12-15T07:53:51.863Z,-8.30
2022-12-15T07:56:20.299Z,-8.20
2022-12-15T07:58:47.846Z,-8.20
2022-12-15T08:01:17.926Z,-8.10
2022-12-15T08:03:46.911Z,-8.00
2022-12-15T08:06:15.502Z,-7.90
2022-12-15T08:08:50.886Z,-7.90
2022-12-15T08:11:20.976Z,-7.80
2022-12-15T08:14:02.664Z,-7.70
2022-12-15T08:16:31.524Z,-7.70
2022-12-15T08:18:58.689Z,-7.60
2022-12-15T08:21:25.913Z,-7.50
2022-12-15T08:23:52.975Z,-7.40
2022-12-15T08:26:23.800Z,-7.30
2022-12-15T08:28:55.453Z,-7.30
2022-12-15T08:31:24.318Z,-7.20
2022-12-15T08:33:51.608Z,-7.20
2022-12-15T08:36:20.326Z,-7.10
2022-12-15T08:38:48.084Z,-7.10
2022-12-15T08:41:19.843Z,-7.10
2022-12-15T08:43:49.534Z,-7.00
2022-12-15T08:46:35.461Z,-6.90
2022-12-15T08:49:05.361Z,-6.90
2022-12-15T08:51:33.878Z,-6.90
2022-12-15T08:54:01.721Z,-6.80
2022-12-15T08:56:30.811Z,-6.70
2022-12-15T08:59:01.024Z,-6.70
2022-12-15T09:01:31.382Z,-6.50
2022-12-15T09:03:59.517Z,-6.40
2022-12-15T09:06:33.154Z,-6.20
2022-12-15T09:09:08.087Z,-6.10
2022-12-15T09:11:35.765Z,-6.00
2022-12-15T09:14:04.578Z,-5.90
2022-12-15T09:16:31.842Z,-5.80
2022-12-15T09:19:00.196Z,-5.70
2022-12-15T09:21:30.559Z,-5.60
2022-12-15T09:24:01.453Z,-5.40
2022-12-15T09:26:31.751Z,-5.30
2022-12-15T09:28:58.943Z,-5.10
2022-12-15T09:31:39.075Z,-4.80
2022-12-15T09:34:06.146Z,-4.60
2022-12-15T09:36:33.292Z,-4.40
2022-12-15T09:39:02.107Z,-4.20
2022-12-15T09:41:33.381Z,-3.90
2022-12-15T09:44:15.270Z,-3.70
2022-12-15T09:47:16.075Z,-3.60
2022-12-15T09:50:14.938Z,-3.50
2022-12-15T09:52:50.431Z,-3.30
2022-12-15T09:55:31.189Z,-3.20
2022-12-15T09:58:10.992Z,-3.10
2022-12-15T10:00:55.923Z,-2.90
2022-12-15T10:03:33.803Z,-2.90
2022-12-15T10:06:41.448Z,-2.70
2022-12-15T10:09:24.630Z,-2.60
2022-12-15T10:12:29.858Z,-2.50
2022-12-15T10:15:02.816Z,-2.60
2022-12-15T10:20:35.993Z,-2.50
2022-12-15T10:23:13.377Z,-2.40
2022-12-15T10:25:53.374Z,-2.30
2022-12-15T10:28:33.647Z,-2.20
2022-12-15T10:31:06.089Z,-2.10
2022-12-15T10:33:39.880Z,-1.90
2022-12-15T10:36:16.182Z,-1.80
2022-12-15T10:38:50.333Z,-1.70
2022-12-15T10:41:24.211Z,-1.60
2022-12-15T10:43:54.070Z,-1.60
2022-12-15T10:46:29.465Z,-1.50
2022-12-15T10:49:06.939Z,-1.40
2022-12-15T10:51:43.895Z,-1.30
2022-12-15T10:54:15.272Z,-1.10
2022-12-15T10:56:57.542Z,-1.00
2022-12-15T10:59:36.517Z,-1.00
2022-12-15T11:02:24.688Z,-0.80
2022-12-15T11:05:17.216Z,-0.60
2022-12-15T11:07:50.364Z,-0.60
2022-12-15T11:10:51.811Z,-0.40
2022-12-15T11:13:23.405Z,-0.20
2022-12-15T11:15:53.269Z,0.00
2022-12-15T11:18:59.634Z,0.00
2022-12-15T11:21:33.542Z,0.00
2022-12-15T11:24:16.649Z,0.30
2022-12-15T11:26:56.610Z,0.50
2022-12-15T11:29:23.630Z,0.70
2022-12-15T11:31:55.117Z,1.10
2022-12-15T11:34:39.482Z,1.00
2022-12-15T11:37:36.482Z,0.80
2022-12-15T11:40:14.459Z,1.10
2022-12-15T11:42:47.580Z,1.40
2022-12-15T11:45:28.367Z,1.60
2022-12-15T11:48:20.690Z,1.80
2022-12-15T11:51:06.796Z,2.00
2022-12-15T11:54:18.731Z,1.60
2022-12-15T11:57:30.688Z,2.00
2022-12-15T12:00:19.914Z,2.70
2022-12-15T12:03:10.866Z,2.70
2022-12-15T12:06:06.069Z,2.60
2022-12-15T12:08:46.922Z,2.30
2022-12-15T12:11:48.813Z,2.10
2022-12-15T12:15:15.740Z,1.60
2022-12-15T12:18:12.515Z,1.10
2022-12-15T12:20:59.921Z,0.90
2022-12-15T12:23:50.545Z,1.30
2022-12-15T12:26:31.959Z,1.80
2022-12-15T12:29:19.871Z,1.70
2022-12-15T12:32:08.121Z,1.40
2022-12-15T12:35:31.279Z,1.20
2022-12-15T12:38:09.028Z,1.10
2022-12-15T12:40:45.268Z,1.00
2022-12-15T12:43:33.318Z,1.10
2022-12-15T12:46:27.221Z,0.90
2022-12-15T12:49:06.129Z,0.90
2022-12-15T12:51:49.209Z,1.10
2022-12-15T12:54:34.741Z,1.00
2022-12-15T12:57:11.515Z,0.70
2022-12-15T12:59:43.627Z,0.50
2022-12-15T13:02:38.207Z,0.50
2022-12-15T13:05:31.208Z,0.40
2022-12-15T13:08:07.063Z,0.20
2022-12-15T13:10:40.881Z,-0.20
2022-12-15T13:13:30.268Z,-0.30
2022-12-15T13:16:19.103Z,-0.50
2022-12-15T13:19:06.982Z,-0.50
2022-12-15T13:21:48.903Z,-0.70
2022-12-15T13:24:47.493Z,-0.90
2022-12-15T13:27:17.854Z,-1.00
2022-12-15T13:29:55.874Z,-1.30
2022-12-15T13:32:36.067Z,-1.30
2022-12-15T13:35:46.029Z,-1.10
2022-12-15T13:38:19.558Z,-0.90
2022-12-15T13:40:52.938Z,-0.70
2022-12-15T13:43:37.947Z,-0.80
2022-12-15T13:46:33.789Z,-0.80
2022-12-15T13:49:25.816Z,-0.90
2022-12-15T13:52:03.091Z,-1.10
2022-12-15T13:54:41.842Z,-1.00
2022-12-15T13:57:17.408Z,-1.20
2022-12-15T13:59:51.809Z,-1.30
2022-12-15T14:02:37.459Z,-1.40
2022-12-15T14:05:15.036Z,-1.50
2022-12-15T14:07:58.782Z,-1.70
2022-12-15T14:10:54.626Z,-1.60
2022-12-15T14:13:32.142Z,-1.60
2022-12-15T14:16:18.253Z,-1.60
2022-12-15T14:18:46.832Z,-1.70
2022-12-15T14:21:24.823Z,-1.70
2022-12-15T14:24:28.201Z,-1.80
2022-12-15T14:26:41.625Z,-1.90
2022-12-15T14:29:11.675Z,-1.90
2022-12-15T14:31:40.552Z,-1.90
2022-12-15T14:34:23.810Z,-1.90
2022-12-15T14:36:51.906Z,-2.00
2022-12-15T14:39:36.910Z,-2.00
2022-12-15T14:42:05.529Z,-2.10
2022-12-15T14:44:39.522Z,-2.10
2022-12-15T14:47:23.547Z,-2.10
2022-12-15T14:49:51.501Z,-2.20
2022-12-15T14:52:39.333Z,-2.20
2022-12-15T14:55:38.365Z,-2.20
2022-12-15T14:58:42.206Z,-2.30
2022-12-15T15:01:35.578Z,-2.30
2022-12-15T15:03:04.320Z,-2.60
2022-12-15T15:04:06.155Z,-2.30
2022-12-15T15:06:40.969Z,-2.30
2022-12-15T15:09:42.301Z,-2.40
2022-12-15T15:12:17.570Z,-2.40
2022-12-15T15:14:49.041Z,-2.40
2022-12-15T15:17:33.765Z,-2.40
2022-12-15T15:20:25.150Z,-2.50
2022-12-15T15:23:13.114Z,-2.50
2022-12-15T15:26:08.363Z,-2.50
2022-12-15T15:28:42.596Z,-2.50
2022-12-15T15:31:25.080Z,-2.60
2022-12-15T15:33:54.714Z,-2.60
2022-12-15T15:36:23.051Z,-2.60
2022-12-15T15:38:52.197Z,-2.70
2022-12-15T15:41:23.435Z,-2.70
2022-12-15T15:43:50.594Z,-2.80
2022-12-15T15:46:30.552Z,-2.80
2022-12-15T15:49:05.354Z,-2.90
2022-12-15T15:51:33.786Z,-2.90
2022-12-15T15:54:05.629Z,-2.90
2022-12-15T15:56:32.666Z,-3.00
2022-12-15T15:59:10.355Z,-3.00
2022-12-15T16:01:37.677Z,-3.00
2022-12-15T16:04:08.590Z,-3.10
2022-12-15T16:06:37.461Z,-3.00
2022-12-15T16:09:07.306Z,-3.00
2022-12-15T16:11:35.371Z,-3.00
2022-12-15T16:14:03.787Z,-3.00
2022-12-15T16:16:33.694Z,-3.00
2022-12-15T16:19:00.765Z,-3.10
2022-12-15T16:21:28.830Z,-3.10
2022-12-15T16:23:57.414Z,-3.10
2022-12-15T16:26:33.181Z,-3.10
2022-12-15T16:29:00.513Z,-3.00
2022-12-15T16:31:42.071Z,-3.00
2022-12-15T16:34:09.447Z,-3.00
2022-12-15T16:36:36.800Z,-3.00
2022-12-15T16:39:04.389Z,-3.00
2022-12-15T16:41:31.588Z,-3.00
2022-12-15T16:43:58.753Z,-3.00
2022-12-15T16:46:26.229Z,-2.90
2022-12-15T16:48:54.727Z,-2.90
2022-12-15T16:51:43.234Z,-2.80
2022-12-15T16:54:19.738Z,-2.80
2022-12-15T16:56:47.057Z,-2.70
2022-12-15T16:59:36.119Z,-2.60
2022-12-15T17:02:29.450Z,-2.60
2022-12-15T17:04:56.732Z,-2.60
2022-12-15T17:07:26.973Z,-2.60
2022-12-15T17:09:54.118Z,-2.60
2022-12-15T17:12:21.155Z,-2.50
2022-12-15T17:14:48.245Z,-2.50
2022-12-15T17:17:18.510Z,-2.50
2022-12-15T17:20:11.779Z,-2.50
2022-12-15T17:22:33.522Z,-2.50
2022-12-15T17:25:00.769Z,-2.50
2022-12-15T17:27:29.826Z,-2.40
2022-12-15T17:29:59.493Z,-2.40
2022-12-15T17:32:26.875Z,-2.40
2022-12-15T17:34:53.931Z,-2.40
2022-12-15T17:37:20.995Z,-2.40
2022-12-15T17:39:51.375Z,-2.40
2022-12-15T17:42:20.399Z,-2.40
2022-12-15T17:44:49.011Z,-2.30
2022-12-15T17:47:18.732Z,-2.30
2022-12-15T17:49:47.356Z,-2.30
2022-12-15T17:52:35.470Z,-2.30
2022-12-15T17:55:08.098Z,-2.30
2022-12-15T17:57:35.773Z,-2.30
2022-12-15T18:00:06.423Z,-2.30
2022-12-15T18:02:33.748Z,-2.30
2022-12-15T18:05:00.980Z,-2.30
2022-12-15T18:07:28.052Z,-2.30
2022-12-15T18:09:55.164Z,-2.30
2022-12-15T18:12:26.442Z,-2.30
2022-12-15T18:14:54.930Z,-2.30
2022-12-15T18:17:22.625Z,-2.30
2022-12-15T18:19:49.859Z,-2.40
2022-12-15T18:22:23.446Z,-2.40
2022-12-15T18:24:52.967Z,-2.30
2022-12-15T18:27:27.507Z,-2.30
2022-12-15T18:29:56.679Z,-2.30
2022-12-15T18:32:26.703Z,-2.30
2022-12-15T18:34:54.809Z,-2.20
2022-12-15T18:37:24.960Z,-2.30
2022-12-15T18:39:52.335Z,-2.20
2022-12-15T18:42:21.306Z,-2.20
2022-12-15T18:44:51.184Z,-2.30
2022-12-15T18:47:23.660Z,-2.30
2022-12-15T18:49:51.029Z,-2.30
2022-12-15T18:52:20.242Z,-2.30
2022-12-15T18:54:51.913Z,-2.30
2022-12-15T18:57:37.985Z,-2.40
2022-12-15T19:00:14.176Z,-2.40
2022-12-15T19:02:42.412Z,-2.40
2022-12-15T19:05:27.851Z,-2.40
2022-12-15T19:08:27.083Z,-2.40
2022-12-15T19:11:01.220Z,-2.50
2022-12-15T19:13:35.769Z,-2.50
2022-12-15T19:16:06.659Z,-2.60
2022-12-15T19:18:52.384Z,-2.60
2022-12-15T19:21:44.551Z,-2.60
2022-12-15T19:24:50.018Z,-2.60
2022-12-15T19:27:20.969Z,-2.60
2022-12-15T19:29:49.491Z,-2.50
2022-12-15T19:32:17.059Z,-2.50
2022-12-15T19:34:44.542Z,-2.50
2022-12-15T19:37:22.961Z,-2.50
2022-12-15T19:39:50.927Z,-2.50
2022-12-15T19:42:21.803Z,-2.40
2022-12-15T19:44:48.982Z,-2.50
2022-12-15T19:47:18.249Z,-2.50
2022-12-15T19:49:45.424Z,-2.50
2022-12-15T19:52:17.869Z,-2.50
2022-12-15T19:54:50.073Z,-2.60
2022-12-15T19:57:18.985Z,-2.50
2022-12-15T19:59:46.382Z,-2.60
2022-12-15T20:02:19.810Z,-2.60
2022-12-15T20:04:55.811Z,-2.70
2022-12-15T20:07:33.670Z,-2.70
2022-12-15T20:10:01.459Z,-2.70
2022-12-15T20:12:28.539Z,-2.70
2022-12-15T20:14:56.079Z,-2.70
2022-12-15T20:17:23.247Z,-2.80
2022-12-15T20:19:51.476Z,-2.80
2022-12-15T20:22:21.852Z,-2.70
2022-12-15T20:24:49.052Z,-2.70
2022-12-15T20:27:19.511Z,-2.80
2022-12-15T20:29:46.622Z,-2.80
2022-12-15T20:32:20.340Z,-2.80
2022-12-15T20:34:47.827Z,-2.90
2022-12-15T20:37:29.123Z,-2.90
2022-12-15T20:39:57.796Z,-2.80
2022-12-15T20:42:25.398Z,-2.80
2022-12-15T20:44:54.255Z,-2.80
2022-12-15T20:47:28.021Z,-2.80
2022-12-15T20:49:55.469Z,-2.80
2022-12-15T20:52:26.451Z,-2.90
2022-12-15T20:54:56.236Z,-2.90
2022-12-15T20:57:23.293Z,-3.00
2022-12-15T20:59:50.808Z,-3.00
2022-12-15T21:02:21.538Z,-3.00
2022-12-15T21:04:51.070Z,-3.00
2022-12-15T21:07:18.910Z,-2.90
2022-12-15T21:09:46.068Z,-2.90
2022-12-15T21:12:24.692Z,-2.90
2022-12-15T21:14:52.253Z,-2.90
2022-12-15T21:17:22.709Z,-2.80
2022-12-15T21:19:49.990Z,-2.80
2022-12-15T21:22:23.374Z,-2.80
2022-12-15T21:24:53.882Z,-2.90
2022-12-15T21:27:22.229Z,-2.90
2022-12-15T21:29:52.591Z,-2.90
2022-12-15T21:32:20.699Z,-3.00
2022-12-15T21:34:48.198Z,-3.00
2022-12-15T21:37:28.489Z,-3.00
2022-12-15T21:39:56.354Z,-3.00
2022-12-15T21:42:24.181Z,-3.10
2022-12-15T21:44:51.441Z,-3.10
2022-12-15T21:47:25.684Z,-3.10
2022-12-15T21:49:52.772Z,-3.10
2022-12-15T21:52:27.184Z,-3.10
2022-12-15T21:54:54.215Z,-3.10
2022-12-15T21:57:21.785Z,-3.00
2022-12-15T21:59:48.777Z,-3.00
2022-12-15T22:02:26.986Z,-3.00
2022-12-15T22:04:54.885Z,-3.00
2022-12-15T22:07:22.222Z,-2.90
2022-12-15T22:09:49.290Z,-2.90
2022-12-15T22:12:23.998Z,-3.00
2022-12-15T22:14:52.161Z,-3.00
2022-12-15T22:17:22.843Z,-3.00
2022-12-15T22:19:49.921Z,-3.00
2022-12-15T22:22:17.105Z,-3.00
2022-12-15T22:24:44.423Z,-3.00
2022-12-15T22:27:22.269Z,-3.00
2022-12-15T22:29:50.530Z,-3.00
2022-12-15T22:32:17.934Z,-2.90
2022-12-15T22:34:44.983Z,-2.90
2022-12-15T22:37:12.008Z,-3.00
2022-12-15T22:39:39.025Z,-2.90
2022-12-15T22:42:06.637Z,-2.90
2022-12-15T22:44:37.382Z,-2.90
2022-12-15T22:47:06.624Z,-2.90
2022-12-15T22:49:38.414Z,-2.90
2022-12-15T22:52:21.061Z,-2.80
2022-12-15T22:54:49.221Z,-2.80
2022-12-15T22:57:32.759Z,-2.70
2022-12-15T23:00:07.387Z,-2.70
2022-12-15T23:02:39.263Z,-2.70
2022-12-15T23:05:07.414Z,-2.60
2022-12-15T23:07:35.694Z,-2.70
2022-12-15T23:10:26.994Z,-2.80
2022-12-15T23:12:56.978Z,-2.80
2022-12-15T23:15:44.862Z,-2.80
2022-12-15T23:18:13.738Z,-2.80
2022-12-15T23:20:41.340Z,-2.80
2022-12-15T23:23:08.631Z,-2.70
2022-12-15T23:25:36.104Z,-2.70
2022-12-15T23:28:03.298Z,-2.80
2022-12-15T23:30:31.021Z,-2.80
2022-12-15T23:32:58.135Z,-2.90
2022-12-15T23:35:25.201Z,-2.90
2022-12-15T23:37:52.233Z,-2.90
2022-12-15T23:40:22.384Z,-3.00
2022-12-15T23:42:50.777Z,-3.00
2022-12-15T23:45:19.014Z,-3.00
2022-12-15T23:47:46.126Z,-3.00
2022-12-15T23:50:13.345Z,-3.10
2022-12-15T23:52:40.877Z,-3.10
2022-12-15T23:55:10.291Z,-3.10
2022-12-15T23:57:39.505Z,-3.20
